sensor_id;sensor_type;location;lat;lon;timestamp;P1;durP1;ratioP1;P2;durP2;ratioP2
17052;SDS011;8643;48.824;11.422;2024-03-08T00:00:52;32.73;;;14.40;;
17052;SDS011;8643;48.824;11.422;2024-03-08T00:03:20;34.53;;;14.97;;
17052;SDS011;8643;48.824;11.422;2024-03-08T00:05:49;34.43;;;15.67;;
17052;SDS011;8643;48.824;11.422;2024-03-08T00:08:18;35.10;;;15.33;;
17052;SDS011;8643;48.824;11.422;2024-03-08T00:10:46;35.20;;;15.67;;
17052;SDS011;8643;48.824;11.422;2024-03-08T00:13:17;36.77;;;15.73;;
17052;SDS011;8643;48.824;11.422;2024-03-08T00:15:45;34.30;;;14.47;;
17052;SDS011;8643;48.824;11.422;2024-03-08T00:18:15;30.77;;;14.20;;
17052;SDS011;8643;48.824;11.422;2024-03-08T00:20:43;36.57;;;15.47;;
17052;SDS011;8643;48.824;11.422;2024-03-08T00:23:12;35.33;;;16.00;;
17052;SDS011;8643;48.824;11.422;2024-03-08T00:25:42;38.70;;;14.37;;
17052;SDS011;8643;48.824;11.422;2024-03-08T00:28:10;36.87;;;15.50;;
17052;SDS011;8643;48.824;11.422;2024-03-08T00:30:43;35.67;;;15.27;;
17052;SDS011;8643;48.824;11.422;2024-03-08T00:33:12;35.50;;;14.63;;
17052;SDS011;8643;48.824;11.422;2024-03-08T00:35:41;33.80;;;14.97;;
17052;SDS011;8643;48.824;11.422;2024-03-08T00:38:09;35.17;;;15.20;;
17052;SDS011;8643;48.824;11.422;2024-03-08T00:40:39;34.17;;;14.57;;
17052;SDS011;8643;48.824;11.422;2024-03-08T00:43:08;36.33;;;15.23;;
17052;SDS011;8643;48.824;11.422;2024-03-08T00:45:36;34.67;;;15.23;;
17052;SDS011;8643;48.824;11.422;2024-03-08T00:48:07;34.93;;;15.27;;
17052;SDS011;8643;48.824;11.422;2024-03-08T00:50:36;35.70;;;16.13;;
17052;SDS011;8643;48.824;11.422;2024-03-08T00:53:04;38.37;;;16.13;;
17052;SDS011;8643;48.824;11.422;2024-03-08T00:55:33;35.40;;;15.83;;
17052;SDS011;8643;48.824;11.422;2024-03-08T00:58:01;34.40;;;15.27;;
17052;SDS011;8643;48.824;11.422;2024-03-08T01:00:30;37.20;;;15.83;;
17052;SDS011;8643;48.824;11.422;2024-03-08T01:02:59;40.83;;;16.63;;
17052;SDS011;8643;48.824;11.422;2024-03-08T01:05:31;38.63;;;15.17;;
17052;SDS011;8643;48.824;11.422;2024-03-08T01:08:01;34.80;;;15.43;;
17052;SDS011;8643;48.824;11.422;2024-03-08T01:10:31;37.27;;;15.87;;
17052;SDS011;8643;48.824;11.422;2024-03-08T01:13:00;36.27;;;15.07;;
17052;SDS011;8643;48.824;11.422;2024-03-08T01:15:28;37.43;;;16.07;;
17052;SDS011;8643;48.824;11.422;2024-03-08T01:17:57;37.90;;;16.50;;
17052;SDS011;8643;48.824;11.422;2024-03-08T01:20:25;35.90;;;15.80;;
17052;SDS011;8643;48.824;11.422;2024-03-08T01:22:56;36.17;;;16.37;;
17052;SDS011;8643;48.824;11.422;2024-03-08T01:25:24;34.77;;;15.63;;
17052;SDS011;8643;48.824;11.422;2024-03-08T01:27:53;40.60;;;16.60;;
17052;SDS011;8643;48.824;11.422;2024-03-08T01:30:21;37.00;;;15.97;;
17052;SDS011;8643;48.824;11.422;2024-03-08T01:32:50;38.70;;;16.30;;
17052;SDS011;8643;48.824;11.422;2024-03-08T01:35:18;35.93;;;16.07;;
17052;SDS011;8643;48.824;11.422;2024-03-08T01:37:48;37.60;;;16.47;;
17052;SDS011;8643;48.824;11.422;2024-03-08T01:40:19;33.63;;;14.87;;
17052;SDS011;8643;48.824;11.422;2024-03-08T01:42:49;36.17;;;15.40;;
17052;SDS011;8643;48.824;11.422;2024-03-08T01:45:17;35.80;;;16.30;;
17052;SDS011;8643;48.824;11.422;2024-03-08T01:47:46;35.80;;;16.77;;
17052;SDS011;8643;48.824;11.422;2024-03-08T01:50:15;36.57;;;16.90;;
17052;SDS011;8643;48.824;11.422;2024-03-08T01:52:43;39.37;;;16.37;;
17052;SDS011;8643;48.824;11.422;2024-03-08T01:55:12;37.00;;;16.33;;
17052;SDS011;8643;48.824;11.422;2024-03-08T01:57:43;38.50;;;16.33;;
17052;SDS011;8643;48.824;11.422;2024-03-08T02:00:12;35.80;;;16.50;;
17052;SDS011;8643;48.824;11.422;2024-03-08T02:02:43;36.73;;;16.53;;
17052;SDS011;8643;48.824;11.422;2024-03-08T02:05:14;36.80;;;17.03;;
17052;SDS011;8643;48.824;11.422;2024-03-08T02:07:43;34.67;;;15.73;;
17052;SDS011;8643;48.824;11.422;2024-03-08T02:10:11;36.37;;;17.20;;
17052;SDS011;8643;48.824;11.422;2024-03-08T02:12:40;36.83;;;17.13;;
17052;SDS011;8643;48.824;11.422;2024-03-08T02:15:11;42.07;;;17.87;;
17052;SDS011;8643;48.824;11.422;2024-03-08T02:17:39;41.03;;;17.00;;
17052;SDS011;8643;48.824;11.422;2024-03-08T02:20:08;37.47;;;16.63;;
17052;SDS011;8643;48.824;11.422;2024-03-08T02:22:41;37.83;;;16.53;;
17052;SDS011;8643;48.824;11.422;2024-03-08T02:25:11;41.30;;;17.33;;
17052;SDS011;8643;48.824;11.422;2024-03-08T02:27:39;43.13;;;17.43;;
17052;SDS011;8643;48.824;11.422;2024-03-08T02:30:08;39.70;;;17.17;;
17052;SDS011;8643;48.824;11.422;2024-03-08T02:32:39;37.97;;;17.40;;
17052;SDS011;8643;48.824;11.422;2024-03-08T02:35:08;42.33;;;17.70;;
17052;SDS011;8643;48.824;11.422;2024-03-08T02:37:36;41.80;;;17.80;;
17052;SDS011;8643;48.824;11.422;2024-03-08T02:40:07;36.73;;;16.80;;
17052;SDS011;8643;48.824;11.422;2024-03-08T02:42:39;41.07;;;17.53;;
17052;SDS011;8643;48.824;11.422;2024-03-08T02:45:08;39.73;;;17.90;;
17052;SDS011;8643;48.824;11.422;2024-03-08T02:47:37;38.03;;;17.13;;
17052;SDS011;8643;48.824;11.422;2024-03-08T02:50:06;37.37;;;17.17;;
17052;SDS011;8643;48.824;11.422;2024-03-08T02:52:35;37.17;;;17.07;;
17052;SDS011;8643;48.824;11.422;2024-03-08T02:55:04;38.20;;;16.50;;
17052;SDS011;8643;48.824;11.422;2024-03-08T02:57:39;36.50;;;16.00;;
17052;SDS011;8643;48.824;11.422;2024-03-08T03:00:08;40.07;;;17.10;;
17052;SDS011;8643;48.824;11.422;2024-03-08T03:02:37;35.87;;;16.90;;
17052;SDS011;8643;48.824;11.422;2024-03-08T03:05:06;39.20;;;16.60;;
17052;SDS011;8643;48.824;11.422;2024-03-08T03:07:36;39.57;;;17.53;;
17052;SDS011;8643;48.824;11.422;2024-03-08T03:10:07;36.43;;;16.83;;
17052;SDS011;8643;48.824;11.422;2024-03-08T03:12:36;42.73;;;17.93;;
17052;SDS011;8643;48.824;11.422;2024-03-08T03:15:05;42.80;;;17.70;;
17052;SDS011;8643;48.824;11.422;2024-03-08T03:17:34;41.40;;;17.23;;
17052;SDS011;8643;48.824;11.422;2024-03-08T03:20:04;38.33;;;17.33;;
17052;SDS011;8643;48.824;11.422;2024-03-08T03:22:37;36.47;;;17.30;;
17052;SDS011;8643;48.824;11.422;2024-03-08T03:25:09;40.70;;;16.97;;
17052;SDS011;8643;48.824;11.422;2024-03-08T03:27:39;40.33;;;16.77;;
17052;SDS011;8643;48.824;11.422;2024-03-08T03:30:09;42.00;;;17.50;;
17052;SDS011;8643;48.824;11.422;2024-03-08T03:32:48;41.20;;;18.17;;
17052;SDS011;8643;48.824;11.422;2024-03-08T03:35:18;38.30;;;17.13;;
17052;SDS011;8643;48.824;11.422;2024-03-08T03:37:47;41.93;;;18.23;;
17052;SDS011;8643;48.824;11.422;2024-03-08T03:40:29;38.83;;;16.87;;
17052;SDS011;8643;48.824;11.422;2024-03-08T03:42:58;39.20;;;16.67;;
17052;SDS011;8643;48.824;11.422;2024-03-08T03:45:27;38.57;;;18.23;;
17052;SDS011;8643;48.824;11.422;2024-03-08T03:47:55;39.27;;;17.60;;
17052;SDS011;8643;48.824;11.422;2024-03-08T03:50:27;39.30;;;15.70;;
17052;SDS011;8643;48.824;11.422;2024-03-08T03:52:55;37.37;;;16.77;;
17052;SDS011;8643;48.824;11.422;2024-03-08T03:55:24;39.77;;;17.43;;
17052;SDS011;8643;48.824;11.422;2024-03-08T03:57:54;38.23;;;17.23;;
17052;SDS011;8643;48.824;11.422;2024-03-08T04:00:26;40.63;;;16.73;;
17052;SDS011;8643;48.824;11.422;2024-03-08T04:02:55;38.40;;;17.27;;
17052;SDS011;8643;48.824;11.422;2024-03-08T04:05:27;40.37;;;16.60;;
17052;SDS011;8643;48.824;11.422;2024-03-08T04:07:57;37.87;;;17.97;;
17052;SDS011;8643;48.824;11.422;2024-03-08T04:10:26;41.37;;;18.43;;
17052;SDS011;8643;48.824;11.422;2024-03-08T04:12:56;40.37;;;16.87;;
17052;SDS011;8643;48.824;11.422;2024-03-08T04:15:25;38.27;;;16.33;;
17052;SDS011;8643;48.824;11.422;2024-03-08T04:17:53;34.47;;;15.57;;
17052;SDS011;8643;48.824;11.422;2024-03-08T04:20:24;36.57;;;16.73;;
17052;SDS011;8643;48.824;11.422;2024-03-08T04:22:52;35.90;;;16.33;;
17052;SDS011;8643;48.824;11.422;2024-03-08T04:25:21;38.53;;;17.00;;
17052;SDS011;8643;48.824;11.422;2024-03-08T04:27:49;40.97;;;17.50;;
17052;SDS011;8643;48.824;11.422;2024-03-08T04:30:20;40.07;;;17.77;;
17052;SDS011;8643;48.824;11.422;2024-03-08T04:32:49;40.00;;;16.73;;
17052;SDS011;8643;48.824;11.422;2024-03-08T04:35:19;38.90;;;17.67;;
17052;SDS011;8643;48.824;11.422;2024-03-08T04:37:48;36.07;;;17.20;;
17052;SDS011;8643;48.824;11.422;2024-03-08T04:40:16;36.93;;;18.03;;
17052;SDS011;8643;48.824;11.422;2024-03-08T04:42:45;39.67;;;18.00;;
17052;SDS011;8643;48.824;11.422;2024-03-08T04:45:17;43.03;;;18.97;;
17052;SDS011;8643;48.824;11.422;2024-03-08T04:47:47;37.30;;;17.03;;
17052;SDS011;8643;48.824;11.422;2024-03-08T04:50:16;42.07;;;17.83;;
17052;SDS011;8643;48.824;11.422;2024-03-08T04:52:44;36.13;;;17.13;;
17052;SDS011;8643;48.824;11.422;2024-03-08T04:55:14;39.43;;;17.50;;
17052;SDS011;8643;48.824;11.422;2024-03-08T04:57:43;45.83;;;18.43;;
17052;SDS011;8643;48.824;11.422;2024-03-08T05:00:13;39.80;;;17.73;;
17052;SDS011;8643;48.824;11.422;2024-03-08T05:02:42;38.83;;;17.83;;
17052;SDS011;8643;48.824;11.422;2024-03-08T05:05:13;39.17;;;17.23;;
17052;SDS011;8643;48.824;11.422;2024-03-08T05:07:41;39.97;;;17.43;;
17052;SDS011;8643;48.824;11.422;2024-03-08T05:10:12;39.67;;;17.53;;
17052;SDS011;8643;48.824;11.422;2024-03-08T05:12:44;41.03;;;17.90;;
17052;SDS011;8643;48.824;11.422;2024-03-08T05:15:12;41.47;;;17.90;;
17052;SDS011;8643;48.824;11.422;2024-03-08T05:17:41;41.40;;;17.40;;
17052;SDS011;8643;48.824;11.422;2024-03-08T05:20:09;43.80;;;17.40;;
17052;SDS011;8643;48.824;11.422;2024-03-08T05:22:41;41.83;;;17.97;;
17052;SDS011;8643;48.824;11.422;2024-03-08T05:25:09;42.37;;;18.00;;
17052;SDS011;8643;48.824;11.422;2024-03-08T05:27:38;41.37;;;17.70;;
17052;SDS011;8643;48.824;11.422;2024-03-08T05:30:07;42.17;;;18.10;;
17052;SDS011;8643;48.824;11.422;2024-03-08T05:32:41;41.53;;;17.70;;
17052;SDS011;8643;48.824;11.422;2024-03-08T05:35:11;41.10;;;17.80;;
17052;SDS011;8643;48.824;11.422;2024-03-08T05:37:44;41.23;;;18.30;;
17052;SDS011;8643;48.824;11.422;2024-03-08T05:40:12;46.33;;;19.77;;
17052;SDS011;8643;48.824;11.422;2024-03-08T05:42:45;40.60;;;18.00;;
17052;SDS011;8643;48.824;11.422;2024-03-08T05:45:14;42.80;;;18.37;;
17052;SDS011;8643;48.824;11.422;2024-03-08T05:47:42;41.73;;;18.03;;
17052;SDS011;8643;48.824;11.422;2024-03-08T05:50:11;46.43;;;19.50;;
17052;SDS011;8643;48.824;11.422;2024-03-08T05:52:41;44.10;;;18.77;;
17052;SDS011;8643;48.824;11.422;2024-03-08T05:55:11;46.50;;;18.63;;
17052;SDS011;8643;48.824;11.422;2024-03-08T05:57:40;45.90;;;18.90;;
17052;SDS011;8643;48.824;11.422;2024-03-08T06:00:10;46.17;;;19.33;;
17052;SDS011;8643;48.824;11.422;2024-03-08T06:02:39;49.23;;;19.77;;
17052;SDS011;8643;48.824;11.422;2024-03-08T06:05:09;44.20;;;19.07;;
17052;SDS011;8643;48.824;11.422;2024-03-08T06:07:37;51.70;;;19.43;;
17052;SDS011;8643;48.824;11.422;2024-03-08T06:10:09;45.20;;;19.17;;
17052;SDS011;8643;48.824;11.422;2024-03-08T06:12:39;49.90;;;21.60;;
17052;SDS011;8643;48.824;11.422;2024-03-08T06:15:09;47.77;;;19.97;;
17052;SDS011;8643;48.824;11.422;2024-03-08T06:17:41;51.77;;;20.27;;
17052;SDS011;8643;48.824;11.422;2024-03-08T06:20:10;51.27;;;19.17;;
17052;SDS011;8643;48.824;11.422;2024-03-08T06:22:40;45.17;;;19.73;;
17052;SDS011;8643;48.824;11.422;2024-03-08T06:25:10;46.77;;;19.70;;
17052;SDS011;8643;48.824;11.422;2024-03-08T06:27:40;44.93;;;19.57;;
17052;SDS011;8643;48.824;11.422;2024-03-08T06:30:10;46.83;;;19.63;;
17052;SDS011;8643;48.824;11.422;2024-03-08T06:32:39;43.73;;;18.30;;
17052;SDS011;8643;48.824;11.422;2024-03-08T06:35:09;46.03;;;18.90;;
17052;SDS011;8643;48.824;11.422;2024-03-08T06:37:38;47.63;;;20.13;;
17052;SDS011;8643;48.824;11.422;2024-03-08T06:40:09;42.77;;;18.27;;
17052;SDS011;8643;48.824;11.422;2024-03-08T06:42:41;39.60;;;17.20;;
17052;SDS011;8643;48.824;11.422;2024-03-08T06:45:11;45.47;;;18.50;;
17052;SDS011;8643;48.824;11.422;2024-03-08T06:47:42;39.53;;;18.10;;
17052;SDS011;8643;48.824;11.422;2024-03-08T06:50:11;42.37;;;18.13;;
17052;SDS011;8643;48.824;11.422;2024-03-08T06:52:41;41.23;;;17.60;;
17052;SDS011;8643;48.824;11.422;2024-03-08T06:55:12;38.20;;;17.93;;
17052;SDS011;8643;48.824;11.422;2024-03-08T06:57:40;43.93;;;17.17;;
17052;SDS011;8643;48.824;11.422;2024-03-08T07:00:09;41.40;;;17.40;;
17052;SDS011;8643;48.824;11.422;2024-03-08T07:02:45;42.23;;;17.33;;
17052;SDS011;8643;48.824;11.422;2024-03-08T07:05:15;38.27;;;17.07;;
17052;SDS011;8643;48.824;11.422;2024-03-08T07:07:44;43.37;;;17.60;;
17052;SDS011;8643;48.824;11.422;2024-03-08T07:10:16;41.33;;;18.07;;
17052;SDS011;8643;48.824;11.422;2024-03-08T07:12:45;40.30;;;17.77;;
17052;SDS011;8643;48.824;11.422;2024-03-08T07:15:14;44.53;;;18.10;;
17052;SDS011;8643;48.824;11.422;2024-03-08T07:17:46;41.03;;;18.03;;
17052;SDS011;8643;48.824;11.422;2024-03-08T07:20:15;40.33;;;17.07;;
17052;SDS011;8643;48.824;11.422;2024-03-08T07:22:45;45.23;;;18.53;;
17052;SDS011;8643;48.824;11.422;2024-03-08T07:25:17;42.70;;;18.03;;
17052;SDS011;8643;48.824;11.422;2024-03-08T07:27:50;42.67;;;17.40;;
17052;SDS011;8643;48.824;11.422;2024-03-08T07:30:20;42.13;;;18.43;;
17052;SDS011;8643;48.824;11.422;2024-03-08T07:33:09;44.60;;;18.90;;
17052;SDS011;8643;48.824;11.422;2024-03-08T07:35:40;45.03;;;19.33;;
17052;SDS011;8643;48.824;11.422;2024-03-08T07:38:11;44.00;;;18.50;;
17052;SDS011;8643;48.824;11.422;2024-03-08T07:40:41;43.83;;;18.53;;
17052;SDS011;8643;48.824;11.422;2024-03-08T07:43:12;42.70;;;18.67;;
17052;SDS011;8643;48.824;11.422;2024-03-08T07:45:40;42.13;;;18.03;;
17052;SDS011;8643;48.824;11.422;2024-03-08T07:48:09;47.30;;;19.97;;
17052;SDS011;8643;48.824;11.422;2024-03-08T07:50:39;43.77;;;19.90;;
17052;SDS011;8643;48.824;11.422;2024-03-08T07:53:08;49.27;;;20.57;;
17052;SDS011;8643;48.824;11.422;2024-03-08T07:55:37;46.37;;;19.67;;
17052;SDS011;8643;48.824;11.422;2024-03-08T07:58:10;48.03;;;19.93;;
17052;SDS011;8643;48.824;11.422;2024-03-08T08:00:40;49.10;;;20.40;;
17052;SDS011;8643;48.824;11.422;2024-03-08T08:03:10;46.13;;;20.57;;
17052;SDS011;8643;48.824;11.422;2024-03-08T08:05:39;45.97;;;21.07;;
17052;SDS011;8643;48.824;11.422;2024-03-08T08:08:07;49.13;;;20.07;;
17052;SDS011;8643;48.824;11.422;2024-03-08T08:10:37;49.47;;;21.67;;
17052;SDS011;8643;48.824;11.422;2024-03-08T08:13:06;52.13;;;21.57;;
17052;SDS011;8643;48.824;11.422;2024-03-08T08:15:36;52.70;;;21.80;;
17052;SDS011;8643;48.824;11.422;2024-03-08T08:18:05;49.47;;;22.97;;
17052;SDS011;8643;48.824;11.422;2024-03-08T08:20:36;52.10;;;21.83;;
17052;SDS011;8643;48.824;11.422;2024-03-08T08:23:05;51.83;;;22.43;;
17052;SDS011;8643;48.824;11.422;2024-03-08T08:25:33;50.57;;;23.50;;
17052;SDS011;8643;48.824;11.422;2024-03-08T08:28:02;47.17;;;21.13;;
17052;SDS011;8643;48.824;11.422;2024-03-08T08:30:31;47.97;;;21.57;;
17052;SDS011;8643;48.824;11.422;2024-03-08T08:33:02;48.27;;;21.60;;
17052;SDS011;8643;48.824;11.422;2024-03-08T08:35:32;51.83;;;22.73;;
17052;SDS011;8643;48.824;11.422;2024-03-08T08:38:01;47.83;;;22.97;;
17052;SDS011;8643;48.824;11.422;2024-03-08T08:40:30;45.77;;;22.83;;
17052;SDS011;8643;48.824;11.422;2024-03-08T08:42:59;49.37;;;24.10;;
17052;SDS011;8643;48.824;11.422;2024-03-08T08:45:31;56.13;;;25.60;;
17052;SDS011;8643;48.824;11.422;2024-03-08T08:47:59;48.73;;;23.93;;
17052;SDS011;8643;48.824;11.422;2024-03-08T08:50:32;49.50;;;23.50;;
17052;SDS011;8643;48.824;11.422;2024-03-08T08:53:01;53.47;;;25.03;;
17052;SDS011;8643;48.824;11.422;2024-03-08T08:55:31;53.20;;;24.50;;
17052;SDS011;8643;48.824;11.422;2024-03-08T08:58:02;52.90;;;24.70;;
17052;SDS011;8643;48.824;11.422;2024-03-08T09:00:32;48.40;;;24.47;;
17052;SDS011;8643;48.824;11.422;2024-03-08T09:03:02;52.43;;;25.13;;
17052;SDS011;8643;48.824;11.422;2024-03-08T09:05:33;53.47;;;24.43;;
17052;SDS011;8643;48.824;11.422;2024-03-08T09:08:05;50.40;;;25.33;;
17052;SDS011;8643;48.824;11.422;2024-03-08T09:10:35;49.13;;;24.33;;
17052;SDS011;8643;48.824;11.422;2024-03-08T09:13:05;49.97;;;24.33;;
17052;SDS011;8643;48.824;11.422;2024-03-08T09:15:43;44.93;;;23.73;;
17052;SDS011;8643;48.824;11.422;2024-03-08T09:18:13;45.60;;;23.47;;
17052;SDS011;8643;48.824;11.422;2024-03-08T09:20:41;45.83;;;23.47;;
17052;SDS011;8643;48.824;11.422;2024-03-08T09:23:10;44.40;;;23.63;;
17052;SDS011;8643;48.824;11.422;2024-03-08T09:25:39;46.73;;;24.07;;
17052;SDS011;8643;48.824;11.422;2024-03-08T09:28:10;47.07;;;23.77;;
17052;SDS011;8643;48.824;11.422;2024-03-08T09:30:39;43.47;;;22.20;;
17052;SDS011;8643;48.824;11.422;2024-03-08T09:33:15;48.27;;;23.27;;
17052;SDS011;8643;48.824;11.422;2024-03-08T09:35:46;44.53;;;22.80;;
17052;SDS011;8643;48.824;11.422;2024-03-08T09:38:14;45.90;;;23.20;;
17052;SDS011;8643;48.824;11.422;2024-03-08T09:40:43;43.63;;;21.87;;
17052;SDS011;8643;48.824;11.422;2024-03-08T09:43:12;47.33;;;23.40;;
17052;SDS011;8643;48.824;11.422;2024-03-08T09:45:41;47.07;;;21.57;;
17052;SDS011;8643;48.824;11.422;2024-03-08T09:48:14;42.73;;;22.07;;
17052;SDS011;8643;48.824;11.422;2024-03-08T09:50:45;40.97;;;21.00;;
17052;SDS011;8643;48.824;11.422;2024-03-08T09:53:15;41.20;;;21.53;;
17052;SDS011;8643;48.824;11.422;2024-03-08T09:55:44;38.07;;;21.27;;
17052;SDS011;8643;48.824;11.422;2024-03-08T09:58:12;38.80;;;20.93;;
17052;SDS011;8643;48.824;11.422;2024-03-08T10:01:03;34.63;;;19.37;;
17052;SDS011;8643;48.824;11.422;2024-03-08T10:03:34;36.63;;;19.97;;
17052;SDS011;8643;48.824;11.422;2024-03-08T10:06:03;33.80;;;18.70;;
17052;SDS011;8643;48.824;11.422;2024-03-08T10:08:32;34.43;;;19.40;;
17052;SDS011;8643;48.824;11.422;2024-03-08T10:11:01;34.73;;;19.43;;
17052;SDS011;8643;48.824;11.422;2024-03-08T10:13:30;35.20;;;18.43;;
17052;SDS011;8643;48.824;11.422;2024-03-08T10:16:00;35.93;;;18.57;;
17052;SDS011;8643;48.824;11.422;2024-03-08T10:18:28;32.60;;;17.93;;
17052;SDS011;8643;48.824;11.422;2024-03-08T10:21:05;33.37;;;18.03;;
17052;SDS011;8643;48.824;11.422;2024-03-08T10:23:37;30.77;;;17.63;;
17052;SDS011;8643;48.824;11.422;2024-03-08T10:26:09;30.33;;;16.60;;
17052;SDS011;8643;48.824;11.422;2024-03-08T10:28:41;30.93;;;17.43;;
17052;SDS011;8643;48.824;11.422;2024-03-08T10:31:11;28.27;;;16.63;;
17052;SDS011;8643;48.824;11.422;2024-03-08T10:33:44;30.27;;;17.90;;
17052;SDS011;8643;48.824;11.422;2024-03-08T10:36:15;29.95;;;17.00;;
17052;SDS011;8643;48.824;11.422;2024-03-08T10:38:45;29.27;;;16.08;;
17052;SDS011;8643;48.824;11.422;2024-03-08T10:41:15;28.98;;;16.75;;
17052;SDS011;8643;48.824;11.422;2024-03-08T10:43:52;28.02;;;16.65;;
17052;SDS011;8643;48.824;11.422;2024-03-08T10:46:53;28.08;;;16.30;;
17052;SDS011;8643;48.824;11.422;2024-03-08T10:49:32;27.00;;;16.42;;
17052;SDS011;8643;48.824;11.422;2024-03-08T10:52:07;29.80;;;17.05;;
17052;SDS011;8643;48.824;11.422;2024-03-08T10:54:40;27.65;;;16.00;;
17052;SDS011;8643;48.824;11.422;2024-03-08T10:57:11;25.95;;;15.80;;
17052;SDS011;8643;48.824;11.422;2024-03-08T10:59:42;25.90;;;16.33;;
17052;SDS011;8643;48.824;11.422;2024-03-08T11:02:11;24.98;;;15.45;;
17052;SDS011;8643;48.824;11.422;2024-03-08T11:04:45;28.30;;;16.10;;
17052;SDS011;8643;48.824;11.422;2024-03-08T11:07:17;28.65;;;17.05;;
17052;SDS011;8643;48.824;11.422;2024-03-08T11:09:47;27.17;;;15.90;;
17052;SDS011;8643;48.824;11.422;2024-03-08T11:12:23;25.27;;;15.18;;
17052;SDS011;8643;48.824;11.422;2024-03-08T11:14:57;22.55;;;14.25;;
17052;SDS011;8643;48.824;11.422;2024-03-08T11:17:40;23.00;;;14.45;;
17052;SDS011;8643;48.824;11.422;2024-03-08T11:20:15;25.88;;;16.05;;
17052;SDS011;8643;48.824;11.422;2024-03-08T11:22:49;25.77;;;14.93;;
17052;SDS011;8643;48.824;11.422;2024-03-08T11:25:30;24.45;;;14.73;;
17052;SDS011;8643;48.824;11.422;2024-03-08T11:28:08;24.67;;;15.25;;
17052;SDS011;8643;48.824;11.422;2024-03-08T11:30:45;24.92;;;14.30;;
17052;SDS011;8643;48.824;11.422;2024-03-08T11:33:39;25.35;;;15.05;;
17052;SDS011;8643;48.824;11.422;2024-03-08T11:36:11;23.55;;;14.40;;
17052;SDS011;8643;48.824;11.422;2024-03-08T11:38:44;23.27;;;13.55;;
17052;SDS011;8643;48.824;11.422;2024-03-08T11:41:16;21.15;;;13.25;;
17052;SDS011;8643;48.824;11.422;2024-03-08T11:43:46;23.08;;;13.77;;
17052;SDS011;8643;48.824;11.422;2024-03-08T11:46:17;21.63;;;13.18;;
17052;SDS011;8643;48.824;11.422;2024-03-08T11:48:47;20.85;;;13.48;;
17052;SDS011;8643;48.824;11.422;2024-03-08T11:51:15;21.38;;;13.00;;
17052;SDS011;8643;48.824;11.422;2024-03-08T11:53:48;20.02;;;12.43;;
17052;SDS011;8643;48.824;11.422;2024-03-08T11:56:17;19.30;;;12.77;;
17052;SDS011;8643;48.824;11.422;2024-03-08T11:58:52;20.70;;;13.00;;
17052;SDS011;8643;48.824;11.422;2024-03-08T12:01:24;18.15;;;12.18;;
17052;SDS011;8643;48.824;11.422;2024-03-08T12:03:54;20.33;;;12.55;;
17052;SDS011;8643;48.824;11.422;2024-03-08T12:06:26;19.38;;;12.45;;
17052;SDS011;8643;48.824;11.422;2024-03-08T12:09:05;20.35;;;12.02;;
17052;SDS011;8643;48.824;11.422;2024-03-08T12:11:37;19.00;;;11.95;;
17052;SDS011;8643;48.824;11.422;2024-03-08T12:14:06;17.48;;;11.70;;
17052;SDS011;8643;48.824;11.422;2024-03-08T12:16:36;16.40;;;11.45;;
17052;SDS011;8643;48.824;11.422;2024-03-08T12:19:04;19.77;;;11.75;;
17052;SDS011;8643;48.824;11.422;2024-03-08T12:21:35;16.88;;;11.35;;
17052;SDS011;8643;48.824;11.422;2024-03-08T12:24:06;17.55;;;11.32;;
17052;SDS011;8643;48.824;11.422;2024-03-08T12:26:37;17.52;;;11.35;;
17052;SDS011;8643;48.824;11.422;2024-03-08T12:29:14;17.33;;;11.90;;
17052;SDS011;8643;48.824;11.422;2024-03-08T12:31:46;16.77;;;11.15;;
17052;SDS011;8643;48.824;11.422;2024-03-08T12:34:16;18.23;;;11.48;;
17052;SDS011;8643;48.824;11.422;2024-03-08T12:36:45;17.55;;;11.50;;
17052;SDS011;8643;48.824;11.422;2024-03-08T12:39:18;15.18;;;10.32;;
17052;SDS011;8643;48.824;11.422;2024-03-08T12:41:54;16.33;;;10.68;;
17052;SDS011;8643;48.824;11.422;2024-03-08T12:44:24;16.77;;;11.30;;
17052;SDS011;8643;48.824;11.422;2024-03-08T12:46:54;16.95;;;10.65;;
17052;SDS011;8643;48.824;11.422;2024-03-08T12:49:26;19.65;;;11.27;;
17052;SDS011;8643;48.824;11.422;2024-03-08T12:51:55;16.27;;;10.70;;
17052;SDS011;8643;48.824;11.422;2024-03-08T12:54:24;18.27;;;12.10;;
17052;SDS011;8643;48.824;11.422;2024-03-08T12:56:53;17.20;;;11.50;;
17052;SDS011;8643;48.824;11.422;2024-03-08T12:59:21;16.35;;;11.00;;
17052;SDS011;8643;48.824;11.422;2024-03-08T13:01:51;16.55;;;10.50;;
17052;SDS011;8643;48.824;11.422;2024-03-08T13:04:20;17.20;;;10.98;;
17052;SDS011;8643;48.824;11.422;2024-03-08T13:06:49;16.58;;;10.80;;
17052;SDS011;8643;48.824;11.422;2024-03-08T13:09:21;17.38;;;11.00;;
17052;SDS011;8643;48.824;11.422;2024-03-08T13:11:51;17.15;;;10.77;;
17052;SDS011;8643;48.824;11.422;2024-03-08T13:14:21;17.42;;;11.23;;
17052;SDS011;8643;48.824;11.422;2024-03-08T13:16:49;15.80;;;10.80;;
17052;SDS011;8643;48.824;11.422;2024-03-08T13:19:18;15.30;;;10.40;;
17052;SDS011;8643;48.824;11.422;2024-03-08T13:21:48;16.67;;;10.90;;
17052;SDS011;8643;48.824;11.422;2024-03-08T13:24:17;17.38;;;10.50;;
17052;SDS011;8643;48.824;11.422;2024-03-08T13:26:46;22.25;;;11.50;;
17052;SDS011;8643;48.824;11.422;2024-03-08T13:29:18;19.17;;;11.07;;
17052;SDS011;8643;48.824;11.422;2024-03-08T13:31:48;16.98;;;10.90;;
17052;SDS011;8643;48.824;11.422;2024-03-08T13:34:18;15.80;;;10.65;;
17052;SDS011;8643;48.824;11.422;2024-03-08T13:36:54;15.60;;;10.57;;
17052;SDS011;8643;48.824;11.422;2024-03-08T13:39:27;15.15;;;10.35;;
17052;SDS011;8643;48.824;11.422;2024-03-08T13:41:58;16.75;;;10.40;;
17052;SDS011;8643;48.824;11.422;2024-03-08T13:44:28;17.13;;;10.55;;
17052;SDS011;8643;48.824;11.422;2024-03-08T13:46:56;14.77;;;10.65;;
17052;SDS011;8643;48.824;11.422;2024-03-08T13:49:25;16.02;;;10.60;;
17052;SDS011;8643;48.824;11.422;2024-03-08T13:51:54;16.45;;;10.45;;
17052;SDS011;8643;48.824;11.422;2024-03-08T13:54:25;16.50;;;10.40;;
17052;SDS011;8643;48.824;11.422;2024-03-08T13:56:57;15.60;;;8.98;;
17052;SDS011;8643;48.824;11.422;2024-03-08T13:59:28;15.85;;;9.52;;
17052;SDS011;8643;48.824;11.422;2024-03-08T14:01:57;15.15;;;8.82;;
17052;SDS011;8643;48.824;11.422;2024-03-08T14:04:26;14.00;;;8.70;;
17052;SDS011;8643;48.824;11.422;2024-03-08T14:06:55;13.30;;;8.85;;
17052;SDS011;8643;48.824;11.422;2024-03-08T14:09:29;14.80;;;9.25;;
17052;SDS011;8643;48.824;11.422;2024-03-08T14:11:58;14.57;;;9.88;;
17052;SDS011;8643;48.824;11.422;2024-03-08T14:14:28;13.45;;;9.27;;
17052;SDS011;8643;48.824;11.422;2024-03-08T14:16:57;14.48;;;8.52;;
17052;SDS011;8643;48.824;11.422;2024-03-08T14:19:25;14.07;;;8.27;;
17052;SDS011;8643;48.824;11.422;2024-03-08T14:21:54;14.50;;;9.20;;
17052;SDS011;8643;48.824;11.422;2024-03-08T14:24:22;13.38;;;8.60;;
17052;SDS011;8643;48.824;11.422;2024-03-08T14:26:51;14.20;;;8.98;;
17052;SDS011;8643;48.824;11.422;2024-03-08T14:29:19;11.20;;;7.90;;
17052;SDS011;8643;48.824;11.422;2024-03-08T14:31:50;11.63;;;8.10;;
17052;SDS011;8643;48.824;11.422;2024-03-08T14:34:19;11.35;;;7.75;;
17052;SDS011;8643;48.824;11.422;2024-03-08T14:36:47;12.70;;;7.88;;
17052;SDS011;8643;48.824;11.422;2024-03-08T14:39:15;12.88;;;7.57;;
17052;SDS011;8643;48.824;11.422;2024-03-08T14:41:48;13.15;;;8.13;;